createdAt,value
2023-04-10T00:01:38.721Z,13.26
2023-04-10T00:04:07.400Z,12.94
2023-04-10T00:06:36.379Z,12.92
2023-04-10T00:09:04.685Z,12.80
2023-04-10T00:11:33.072Z,12.87
2023-04-10T00:14:01.304Z,12.93
2023-04-10T00:16:29.817Z,12.75
2023-04-10T00:18:59.541Z,13.25
2023-04-10T00:21:27.990Z,12.80
2023-04-10T00:23:56.342Z,12.82
2023-04-10T00:26:26.468Z,12.83
2023-04-10T00:28:54.867Z,12.94
2023-04-10T00:31:23.379Z,12.81
2023-04-10T00:33:51.794Z,12.92
2023-04-10T00:36:22.050Z,13.30
2023-04-10T00:38:50.542Z,12.93
2023-04-10T00:41:19.015Z,12.85
2023-04-10T00:43:47.230Z,12.83
2023-04-10T00:46:15.982Z,12.93
2023-04-10T00:48:44.176Z,12.99
2023-04-10T00:51:13.098Z,13.18
2023-04-10T00:53:42.621Z,13.27
2023-04-10T00:56:11.481Z,12.89
2023-04-10T00:58:39.919Z,12.98
2023-04-10T01:01:08.904Z,13.16
2023-04-10T01:03:37.892Z,13.21
2023-04-10T01:06:12.427Z,13.55
2023-04-10T01:08:48.800Z,13.63
2023-04-10T01:11:25.594Z,13.61
2023-04-10T01:13:57.857Z,13.58
2023-04-10T01:16:29.341Z,13.51
2023-04-10T01:19:02.105Z,13.65
2023-04-10T01:21:32.178Z,13.30
2023-04-10T01:24:20.046Z,13.94
2023-04-10T01:27:07.276Z,13.91
2023-04-10T01:29:44.667Z,13.77
2023-04-10T01:32:16.656Z,13.58
2023-04-10T01:34:47.129Z,13.62
2023-04-10T01:37:18.371Z,13.66
2023-04-10T01:39:49.786Z,13.71
2023-04-10T01:42:19.373Z,13.57
2023-04-10T01:44:50.329Z,13.77
2023-04-10T01:47:19.404Z,13.53
2023-04-10T01:49:48.676Z,13.56
2023-04-10T01:52:17.897Z,13.58
2023-04-10T01:54:48.653Z,13.72
2023-04-10T01:57:17.306Z,13.37
2023-04-10T01:59:45.657Z,13.26
2023-04-10T02:02:15.638Z,13.58
2023-04-10T02:04:46.625Z,13.21
2023-04-10T02:07:19.746Z,13.77
2023-04-10T02:09:54.533Z,13.78
2023-04-10T02:12:27.012Z,13.66
2023-04-10T02:14:57.332Z,13.63
2023-04-10T02:17:31.228Z,13.88
2023-04-10T02:20:00.105Z,13.42
2023-04-10T02:22:29.070Z,13.41
2023-04-10T02:24:58.528Z,13.60
2023-04-10T02:27:31.111Z,13.81
2023-04-10T02:29:59.348Z,13.32
2023-04-10T02:32:29.372Z,13.66
2023-04-10T02:34:57.721Z,13.34
2023-04-10T02:37:26.456Z,13.27
2023-04-10T02:39:55.047Z,13.17
2023-04-10T02:42:24.083Z,13.20
2023-04-10T02:44:52.248Z,13.23
2023-04-10T02:47:20.623Z,13.17
2023-04-10T02:49:50.208Z,13.64
2023-04-10T02:52:18.897Z,13.22
2023-04-10T02:54:47.576Z,13.21
2023-04-10T02:57:16.076Z,13.15
2023-04-10T02:59:44.653Z,13.15
2023-04-10T03:02:13.121Z,13.05
2023-04-10T03:04:41.368Z,13.05
2023-04-10T03:07:11.420Z,13.24
2023-04-10T03:09:39.672Z,12.95
2023-04-10T03:12:08.095Z,12.82
2023-04-10T03:14:36.306Z,12.83
2023-04-10T03:17:04.970Z,12.79
2023-04-10T03:19:33.157Z,12.78
2023-04-10T03:22:02.410Z,12.86
2023-04-10T03:24:31.910Z,13.15
2023-04-10T03:27:00.389Z,12.81
2023-04-10T03:29:28.501Z,12.74
2023-04-10T03:31:57.574Z,12.76
2023-04-10T03:34:25.880Z,12.71
2023-04-10T03:36:54.417Z,12.76
2023-04-10T03:39:22.959Z,12.67
2023-04-10T03:41:52.868Z,13.05
2023-04-10T03:44:21.116Z,12.55
2023-04-10T03:46:49.638Z,12.55
2023-04-10T03:49:17.885Z,12.60
2023-04-10T03:51:46.349Z,12.62
2023-04-10T03:54:14.778Z,12.72
2023-04-10T03:56:43.237Z,12.70
2023-04-10T03:59:12.961Z,13.18
2023-04-10T04:01:41.410Z,12.77
2023-04-10T04:04:09.851Z,12.81
2023-04-10T04:06:38.318Z,12.81
2023-04-10T04:09:06.515Z,12.76
2023-04-10T04:11:34.904Z,12.76
2023-04-10T04:14:03.014Z,12.76
2023-04-10T04:16:32.978Z,13.26
2023-04-10T04:19:01.168Z,12.80
2023-04-10T04:21:29.730Z,12.77
2023-04-10T04:23:57.919Z,12.74
2023-04-10T04:26:26.432Z,12.73
2023-04-10T04:28:54.695Z,12.72
2023-04-10T04:31:24.353Z,12.73
2023-04-10T04:33:54.361Z,13.09
2023-04-10T04:36:23.021Z,12.73
2023-04-10T04:38:51.183Z,12.60
2023-04-10T04:41:20.595Z,12.74
2023-04-10T04:43:49.523Z,12.73
2023-04-10T04:46:17.999Z,12.77
2023-04-10T04:48:46.111Z,12.77
2023-04-10T04:51:15.998Z,13.36
2023-04-10T04:53:44.112Z,12.98
2023-04-10T04:56:12.655Z,13.02
2023-04-10T04:58:40.965Z,12.97
2023-04-10T05:01:09.627Z,12.96
2023-04-10T05:03:37.978Z,12.88
2023-04-10T05:06:07.114Z,13.00
2023-04-10T05:08:36.684Z,13.33
2023-04-10T05:11:05.114Z,12.91
2023-04-10T05:13:33.694Z,12.99
2023-04-10T05:16:02.311Z,12.97
2023-04-10T05:18:30.784Z,13.06
2023-04-10T05:20:59.240Z,12.81
2023-04-10T05:23:27.421Z,12.76
2023-04-10T05:25:57.264Z,13.22
2023-04-10T05:28:25.468Z,13.02
2023-04-10T05:30:53.953Z,13.07
2023-04-10T05:33:22.405Z,13.11
2023-04-10T05:35:50.937Z,13.06
2023-04-10T05:38:19.205Z,13.07
2023-04-10T05:40:47.659Z,13.15
2023-04-10T05:43:17.188Z,13.62
2023-04-10T05:45:46.097Z,13.38
2023-04-10T05:48:14.238Z,13.33
2023-04-10T05:50:42.827Z,13.26
2023-04-10T05:53:14.408Z,13.75
2023-04-10T05:55:42.800Z,13.14
2023-04-10T05:58:10.998Z,13.00
2023-04-10T06:00:40.941Z,13.36
2023-04-10T06:03:09.913Z,13.25
2023-04-10T06:05:38.557Z,13.18
2023-04-10T06:08:06.762Z,13.27
2023-04-10T06:10:35.351Z,13.27
2023-04-10T06:13:03.745Z,13.37
2023-04-10T06:15:32.194Z,13.29
2023-04-10T06:18:01.853Z,13.77
2023-04-10T06:20:30.697Z,13.44
2023-04-10T06:22:59.811Z,13.77
2023-04-10T06:25:28.286Z,13.51
2023-04-10T06:27:56.555Z,13.63
2023-04-10T06:30:25.370Z,13.78
2023-04-10T06:32:53.940Z,13.76
2023-04-10T06:35:23.996Z,14.15
2023-04-10T06:37:52.115Z,13.76
2023-04-10T06:40:20.712Z,13.74
2023-04-10T06:42:48.769Z,13.64
2023-04-10T06:45:17.383Z,13.68
2023-04-10T06:47:45.494Z,13.49
2023-04-10T06:50:14.106Z,13.40
2023-04-10T06:52:43.651Z,13.84
2023-04-10T06:55:14.609Z,13.55
2023-04-10T06:57:43.606Z,13.58
2023-04-10T07:00:12.858Z,13.74
2023-04-10T07:02:41.382Z,13.60
2023-04-10T07:05:10.817Z,13.76
2023-04-10T07:07:38.999Z,13.59
2023-04-10T07:10:10.328Z,13.98
2023-04-10T07:12:38.452Z,13.57
2023-04-10T07:15:08.709Z,13.92
2023-04-10T07:17:36.949Z,13.67
2023-04-10T07:20:06.928Z,14.02
2023-04-10T07:22:35.178Z,13.70
2023-04-10T07:25:03.730Z,13.76
2023-04-10T07:27:33.364Z,14.19
2023-04-10T07:30:01.934Z,13.88
2023-04-10T07:32:30.240Z,13.87
2023-04-10T07:34:58.819Z,13.91
2023-04-10T07:37:27.116Z,13.94
2023-04-10T07:39:55.634Z,13.99
2023-04-10T07:42:24.230Z,14.06
2023-04-10T07:44:54.123Z,14.53
2023-04-10T07:47:25.128Z,14.22
2023-04-10T07:49:53.826Z,14.36
2023-04-10T07:52:22.068Z,14.29
2023-04-10T07:54:50.474Z,14.34
2023-04-10T07:57:18.566Z,14.26
2023-04-10T07:59:50.047Z,14.38
2023-04-10T08:02:19.778Z,14.99
2023-04-10T08:04:48.422Z,14.63
2023-04-10T08:07:23.369Z,15.33
2023-04-10T08:09:51.971Z,15.09
2023-04-10T08:12:25.655Z,15.72
2023-04-10T08:15:01.148Z,15.37
2023-04-10T08:17:30.675Z,15.80
2023-04-10T08:20:04.726Z,16.10
2023-04-10T08:22:38.866Z,16.20
2023-04-10T08:25:09.372Z,15.78
2023-04-10T08:27:38.129Z,15.70
2023-04-10T08:30:10.450Z,15.99
2023-04-10T08:32:41.671Z,16.42
2023-04-10T08:35:12.807Z,16.23
2023-04-10T08:37:49.732Z,16.53
2023-04-10T08:40:22.260Z,16.68
2023-04-10T08:42:50.448Z,16.51
2023-04-10T08:45:23.543Z,16.98
2023-04-10T08:48:01.780Z,17.30
2023-04-10T08:50:32.731Z,17.61
2023-04-10T08:53:15.469Z,18.67
2023-04-10T08:55:45.510Z,19.67
2023-04-10T08:58:14.405Z,20.42
2023-04-10T09:00:42.871Z,20.91
2023-04-10T09:03:14.380Z,21.16
2023-04-10T09:05:43.276Z,20.53
2023-04-10T09:08:12.315Z,20.20
2023-04-10T09:10:41.067Z,19.76
2023-04-10T09:13:09.307Z,19.50
2023-04-10T09:16:03.582Z,20.16
2023-04-10T09:18:52.298Z,19.92
2023-04-10T09:21:34.705Z,18.86
2023-04-10T09:24:05.896Z,18.48
2023-04-10T09:26:34.423Z,19.68
2023-04-10T09:29:03.812Z,18.84
2023-04-10T09:31:34.584Z,18.94
2023-04-10T09:34:15.549Z,19.20
2023-04-10T09:36:44.850Z,18.58
2023-04-10T09:39:14.777Z,18.88
2023-04-10T09:41:50.895Z,18.96
2023-04-10T09:44:33.365Z,18.52
2023-04-10T09:47:23.217Z,19.07
2023-04-10T09:49:54.248Z,18.80
2023-04-10T09:52:27.353Z,18.82
2023-04-10T09:54:56.672Z,18.62
2023-04-10T09:57:27.266Z,18.90
2023-04-10T09:59:57.592Z,19.02
2023-04-10T10:02:27.391Z,19.11
2023-04-10T10:04:59.131Z,19.29
2023-04-10T10:07:28.016Z,18.97
2023-04-10T10:09:56.599Z,18.90
2023-04-10T10:12:30.353Z,19.22
2023-04-10T10:15:03.071Z,19.46
2023-04-10T10:17:41.234Z,19.36
2023-04-10T10:20:12.543Z,19.32
2023-04-10T10:22:41.623Z,18.94
2023-04-10T10:25:11.193Z,19.19
2023-04-10T10:27:39.798Z,19.01
2023-04-10T10:30:20.726Z,19.58
2023-04-10T10:32:57.866Z,19.22
2023-04-10T10:35:29.550Z,19.33
2023-04-10T10:38:00.325Z,18.93
2023-04-10T10:40:31.248Z,18.81
2023-04-10T10:43:09.822Z,18.82
2023-04-10T10:45:42.648Z,18.61
2023-04-10T10:48:11.615Z,18.06
2023-04-10T10:50:55.026Z,18.78
2023-04-10T10:53:40.410Z,18.96
2023-04-10T10:56:34.498Z,19.42
2023-04-10T10:59:03.375Z,18.57
2023-04-10T11:01:31.780Z,18.59
2023-04-10T11:04:01.550Z,18.84
2023-04-10T11:06:53.147Z,20.25
2023-04-10T11:09:46.597Z,20.59
2023-04-10T11:12:14.885Z,19.95
2023-04-10T11:14:44.501Z,20.23
2023-04-10T11:17:12.849Z,20.18
2023-04-10T11:20:01.108Z,20.79
2023-04-10T11:22:30.941Z,20.16
2023-04-10T11:25:02.643Z,20.00
2023-04-10T11:27:46.632Z,20.40
2023-04-10T11:30:32.136Z,20.40
2023-04-10T11:33:01.571Z,19.72
2023-04-10T11:35:31.723Z,19.68
2023-04-10T11:38:11.830Z,20.61
2023-04-10T11:40:57.145Z,21.11
2023-04-10T11:43:25.749Z,20.70
2023-04-10T11:46:01.599Z,21.89
2023-04-10T11:48:30.160Z,21.91
2023-04-10T11:51:00.157Z,22.39
2023-04-10T11:53:30.341Z,23.15
2023-04-10T11:55:59.070Z,23.01
2023-04-10T11:58:28.235Z,23.43
2023-04-10T12:01:00.633Z,23.52
2023-04-10T12:03:36.751Z,24.16
2023-04-10T12:06:06.796Z,23.74
2023-04-10T12:08:38.238Z,23.92
2023-04-10T12:11:07.442Z,23.83
2023-04-10T12:13:35.906Z,24.21
2023-04-10T12:16:06.640Z,24.79
2023-04-10T12:18:35.387Z,24.20
2023-04-10T12:21:05.026Z,23.77
2023-04-10T12:23:33.877Z,23.35
2023-04-10T12:26:24.651Z,24.13
2023-04-10T12:28:54.700Z,23.25
2023-04-10T12:31:29.872Z,23.42
2023-04-10T12:33:58.709Z,22.98
2023-04-10T12:36:29.463Z,23.19
2023-04-10T12:39:02.455Z,23.17
2023-04-10T12:41:40.973Z,23.55
2023-04-10T12:44:10.956Z,23.61
2023-04-10T12:46:41.087Z,23.76
2023-04-10T12:49:13.874Z,24.27
2023-04-10T12:51:46.752Z,24.13
2023-04-10T12:54:28.917Z,23.99
2023-04-10T12:56:59.290Z,23.54
2023-04-10T12:59:28.133Z,23.30
2023-04-10T13:01:57.197Z,23.57
2023-04-10T13:04:26.337Z,23.49
2023-04-10T13:06:55.250Z,23.42
2023-04-10T13:09:23.442Z,23.34
2023-04-10T13:11:53.076Z,23.42
2023-04-10T13:14:24.079Z,23.49
2023-04-10T13:16:52.520Z,24.15
2023-04-10T13:19:20.921Z,22.75
2023-04-10T13:21:50.887Z,22.54
2023-04-10T13:24:19.128Z,22.41
2023-04-10T13:26:47.530Z,22.38
2023-04-10T13:29:16.155Z,22.45
2023-04-10T13:31:47.156Z,23.07
2023-04-10T13:34:15.510Z,22.77
2023-04-10T13:36:44.410Z,22.92
2023-04-10T13:39:12.752Z,23.06
2023-04-10T13:41:41.346Z,23.21
2023-04-10T13:44:09.775Z,23.16
2023-04-10T13:46:38.325Z,22.98
2023-04-10T13:49:08.139Z,23.25
2023-04-10T13:51:37.026Z,22.80
2023-04-10T13:54:06.878Z,22.69
2023-04-10T13:56:35.472Z,22.42
2023-04-10T13:59:03.717Z,22.23
2023-04-10T14:01:32.471Z,22.37
2023-04-10T14:04:00.853Z,22.45
2023-04-10T14:06:31.874Z,22.83
2023-04-10T14:09:00.276Z,22.24
2023-04-10T14:11:29.085Z,22.13
2023-04-10T14:13:57.621Z,21.89
2023-04-10T14:16:26.682Z,21.79
2023-04-10T14:18:55.486Z,21.71
2023-04-10T14:21:24.560Z,21.51
2023-04-10T14:23:54.237Z,21.72
2023-04-10T14:26:23.474Z,21.31
2023-04-10T14:28:52.371Z,21.24
2023-04-10T14:31:21.353Z,21.28
2023-04-10T14:33:50.265Z,21.25
2023-04-10T14:36:18.950Z,21.32
2023-04-10T14:38:47.431Z,21.30
2023-04-10T14:41:17.407Z,21.66
2023-04-10T14:43:45.761Z,21.34
2023-04-10T14:46:14.850Z,21.39
2023-04-10T14:48:43.338Z,21.40
2023-04-10T14:51:12.994Z,21.26
2023-04-10T14:53:41.235Z,21.32
2023-04-10T14:56:13.448Z,21.94
2023-04-10T14:58:43.945Z,21.86
2023-04-10T15:01:13.539Z,21.68
2023-04-10T15:03:42.302Z,21.75
2023-04-10T15:06:11.556Z,21.56
2023-04-10T15:08:39.923Z,21.56
2023-04-10T15:11:08.629Z,21.67
2023-04-10T15:13:37.915Z,21.61
2023-04-10T15:16:09.274Z,21.95
2023-04-10T15:18:37.509Z,21.52
2023-04-10T15:21:07.045Z,21.60
2023-04-10T15:23:35.511Z,21.44
2023-04-10T15:54:29.282Z,21.94
2023-04-10T15:57:29.797Z,22.17
2023-04-10T16:00:13.027Z,22.02
2023-04-10T16:02:51.274Z,21.80
2023-04-10T16:05:54.876Z,21.74
2023-04-10T16:08:41.434Z,21.67
2023-04-10T16:11:15.879Z,21.26
2023-04-10T16:14:21.789Z,20.79
2023-04-10T16:17:30.316Z,18.45
2023-04-10T16:20:48.499Z,17.82
2023-04-10T16:23:39.106Z,17.49
2023-04-10T16:26:29.601Z,16.85
2023-04-10T16:29:19.242Z,16.20
2023-04-10T16:31:52.444Z,15.52
2023-04-10T16:34:29.860Z,15.70
2023-04-10T16:37:09.935Z,16.02
2023-04-10T16:39:43.913Z,15.71
2023-04-10T16:42:22.559Z,15.91
2023-04-10T16:45:04.584Z,15.83
2023-04-10T16:47:37.549Z,15.98
2023-04-10T16:50:22.348Z,16.16
2023-04-10T16:52:53.286Z,16.29
2023-04-10T16:55:28.462Z,16.19
2023-04-10T16:58:36.437Z,16.89
2023-04-10T17:01:28.421Z,16.74
2023-04-10T17:04:06.358Z,16.27
2023-04-10T17:06:43.170Z,15.99
2023-04-10T17:09:32.949Z,16.09
2023-04-10T17:12:13.359Z,15.75
2023-04-10T17:14:59.446Z,16.20
2023-04-10T17:17:42.059Z,15.60
2023-04-10T17:20:23.608Z,15.81
2023-04-10T17:23:16.000Z,16.05
2023-04-10T17:29:29.655Z,15.85
2023-04-10T17:32:19.790Z,15.97
2023-04-10T17:39:40.678Z,16.16
2023-04-10T17:42:39.069Z,15.73
2023-04-10T17:54:21.012Z,15.94
2023-04-10T17:57:24.323Z,15.10
2023-04-10T18:00:47.515Z,15.70
2023-04-10T18:04:51.568Z,15.66
2023-04-10T18:07:50.380Z,15.58
2023-04-10T18:14:45.360Z,15.33
2023-04-10T18:18:12.002Z,15.69
2023-04-10T18:21:15.225Z,15.60
2023-04-10T18:51:02.524Z,15.37
2023-04-10T18:54:25.115Z,15.20
2023-04-10T18:58:18.328Z,15.16
2023-04-10T19:01:15.152Z,14.73
2023-04-10T19:04:43.004Z,15.50
2023-04-10T19:07:37.216Z,15.09
2023-04-10T19:10:42.583Z,15.14
2023-04-10T19:13:19.181Z,14.83
2023-04-10T19:16:24.268Z,15.20
2023-04-10T19:19:53.090Z,14.90
2023-04-10T19:23:21.261Z,15.42
2023-04-10T19:30:35.624Z,15.69
2023-04-10T19:33:40.176Z,15.42
2023-04-10T19:36:49.817Z,14.55
2023-04-10T19:39:56.323Z,14.26
2023-04-10T19:43:20.056Z,13.94
2023-04-10T19:47:05.208Z,13.91
2023-04-10T19:54:30.301Z,13.99
2023-04-10T19:57:46.907Z,13.64
2023-04-10T20:01:36.630Z,14.06
2023-04-10T20:05:28.012Z,14.10
2023-04-10T20:08:23.938Z,13.50
2023-04-10T20:11:35.542Z,14.45
2023-04-10T20:15:16.587Z,14.08
2023-04-10T20:19:12.234Z,14.12
2023-04-10T20:22:16.865Z,14.33
2023-04-10T20:25:11.448Z,14.12
2023-04-10T20:28:16.090Z,13.91
2023-04-10T20:31:47.748Z,14.32
2023-04-10T20:35:18.800Z,14.37
2023-04-10T20:38:43.515Z,14.23
2023-04-10T20:42:17.314Z,13.97
2023-04-10T20:46:28.183Z,14.25
2023-04-10T20:49:19.186Z,13.54
2023-04-10T20:52:12.064Z,13.80
2023-04-10T20:54:54.701Z,13.69
2023-04-10T20:57:29.543Z,13.74
2023-04-10T21:00:34.252Z,13.71
2023-04-10T21:03:33.926Z,13.36
2023-04-10T21:06:35.174Z,13.52
2023-04-10T21:09:19.663Z,13.38
2023-04-10T21:11:48.114Z,13.03
2023-04-10T21:14:16.274Z,12.96
2023-04-10T21:16:46.010Z,12.97
2023-04-10T21:19:14.858Z,13.23
2023-04-10T21:21:43.430Z,12.94
2023-04-10T21:24:11.642Z,12.83
2023-04-10T21:26:41.573Z,13.33
2023-04-10T21:29:09.752Z,12.91
2023-04-10T21:31:38.277Z,12.94
2023-04-10T21:34:06.493Z,12.81
2023-04-10T21:36:34.960Z,12.96
2023-04-10T21:39:03.201Z,12.97
2023-04-10T21:41:31.649Z,12.88
2023-04-10T21:44:01.582Z,13.36
2023-04-10T21:46:31.209Z,13.18
2023-04-10T21:48:59.468Z,12.72
2023-04-10T21:51:28.709Z,13.05
2023-04-10T21:53:56.907Z,12.77
2023-04-10T21:56:25.932Z,12.67
2023-04-10T21:58:54.216Z,12.59
2023-04-10T22:01:24.374Z,13.03
2023-04-10T22:03:54.055Z,12.47
2023-04-10T22:06:22.862Z,12.57
2023-04-10T22:08:50.939Z,12.56
2023-04-10T22:11:19.431Z,12.63
2023-04-10T22:13:47.547Z,12.61
2023-04-10T22:16:16.048Z,12.69
2023-04-10T22:18:45.638Z,13.25
2023-04-10T22:21:14.381Z,12.79
2023-04-10T22:23:42.581Z,12.68
2023-04-10T22:26:11.157Z,12.64
2023-04-10T22:28:39.330Z,12.63
2023-04-10T22:31:08.129Z,12.61
2023-04-10T22:33:37.654Z,12.52
2023-04-10T22:36:08.498Z,12.83
2023-04-10T22:38:36.711Z,12.41
2023-04-10T22:41:06.686Z,12.47
2023-04-10T22:43:35.359Z,12.50
2023-04-10T22:46:03.818Z,12.24
2023-04-10T22:48:32.129Z,12.25
2023-04-10T22:51:00.558Z,12.15
2023-04-10T22:53:30.144Z,12.55
2023-04-10T22:55:58.566Z,12.08
2023-04-10T22:58:26.834Z,12.16
2023-04-10T23:00:55.270Z,12.13
2023-04-10T23:03:23.485Z,12.09
2023-04-10T23:05:51.939Z,12.12
2023-04-10T23:08:20.088Z,12.09
2023-04-10T23:10:49.942Z,12.57
2023-04-10T23:13:18.114Z,12.17
2023-04-10T23:15:50.182Z,12.69
2023-04-10T23:18:18.987Z,12.19
2023-04-10T23:20:47.808Z,12.25
2023-04-10T23:23:16.205Z,12.21
2023-04-10T23:25:44.756Z,12.07
2023-04-10T23:28:14.327Z,12.43
2023-04-10T23:30:43.210Z,11.99
2023-04-10T23:33:11.383Z,11.93
2023-04-10T23:35:39.873Z,11.88
2023-04-10T23:38:08.065Z,11.86
2023-04-10T23:40:36.504Z,11.85
2023-04-10T23:43:04.770Z,11.80
2023-04-10T23:45:34.565Z,12.20
2023-04-10T23:48:02.786Z,11.75
2023-04-10T23:50:31.209Z,11.69
2023-04-10T23:53:00.708Z,11.71
2023-04-10T23:55:29.182Z,11.69
2023-04-10T23:57:57.350Z,11.67
